createdAt,value
2018-10-09T00:01:55.630Z,5.10
2018-10-09T00:04:24.169Z,6.60
2018-10-09T00:06:52.684Z,6.73
2018-10-09T00:09:21.204Z,5.23
2018-10-09T00:11:49.700Z,9.20
2018-10-09T00:14:18.232Z,8.30
2018-10-09T00:16:46.736Z,7.40
2018-10-09T00:19:15.264Z,5.10
2018-10-09T00:21:43.781Z,6.03
2018-10-09T00:24:12.297Z,8.33
2018-10-09T00:26:40.961Z,5.13
2018-10-09T00:29:09.500Z,7.80
2018-10-09T00:31:38.012Z,6.27
2018-10-09T00:34:06.607Z,6.60
2018-10-09T00:36:35.406Z,7.37
2018-10-09T00:39:05.351Z,6.70
2018-10-09T00:41:33.857Z,9.03
2018-10-09T00:44:02.404Z,6.63
2018-10-09T00:46:30.916Z,10.27
2018-10-09T00:48:59.471Z,10.73
2018-10-09T00:51:28.081Z,5.93
2018-10-09T00:53:56.645Z,8.00
2018-10-09T00:56:25.166Z,6.97
2018-10-09T00:58:53.943Z,8.47
2018-10-09T01:01:22.503Z,8.77
2018-10-09T01:03:51.025Z,6.77
2018-10-09T01:06:19.604Z,7.43
2018-10-09T01:08:48.102Z,9.93
2018-10-09T01:11:16.625Z,8.03
2018-10-09T01:13:45.123Z,7.13
2018-10-09T01:16:13.664Z,5.70
2018-10-09T01:18:42.363Z,6.10
2018-10-09T01:21:10.888Z,6.70
2018-10-09T01:23:39.404Z,10.60
2018-10-09T01:26:08.346Z,11.17
2018-10-09T01:28:36.869Z,7.37
2018-10-09T01:31:06.400Z,9.03
2018-10-09T01:33:34.934Z,7.20
2018-10-09T01:36:03.474Z,8.50
2018-10-09T01:38:32.000Z,10.83
2018-10-09T01:41:00.555Z,11.27
2018-10-09T01:43:29.066Z,7.33
2018-10-09T01:45:57.620Z,6.93
2018-10-09T01:48:26.117Z,8.83
2018-10-09T01:50:54.678Z,8.10
2018-10-09T01:53:23.178Z,8.67
2018-10-09T01:55:51.750Z,7.87
2018-10-09T01:58:20.257Z,9.93
2018-10-09T02:00:48.760Z,9.00
2018-10-09T02:03:17.378Z,8.27
2018-10-09T02:05:45.885Z,7.07
2018-10-09T02:08:14.402Z,12.90
2018-10-09T02:10:42.905Z,9.73
2018-10-09T02:13:11.425Z,13.70
2018-10-09T02:15:40.249Z,14.60
2018-10-09T02:18:08.780Z,12.33
2018-10-09T02:20:37.278Z,11.70
2018-10-09T02:23:05.813Z,12.83
2018-10-09T02:25:34.313Z,8.13
2018-10-09T02:28:02.827Z,7.50
2018-10-09T02:30:31.378Z,7.87
2018-10-09T02:32:59.953Z,6.27
2018-10-09T02:35:28.492Z,7.50
2018-10-09T02:37:57.016Z,9.63
2018-10-09T02:40:25.529Z,6.30
2018-10-09T02:42:54.047Z,7.23
2018-10-09T02:45:22.563Z,8.93
2018-10-09T02:47:51.102Z,6.17
2018-10-09T02:50:19.681Z,7.60
2018-10-09T02:52:48.173Z,11.83
2018-10-09T02:55:16.702Z,11.97
2018-10-09T02:57:45.208Z,9.73
2018-10-09T03:00:13.724Z,7.30
2018-10-09T03:02:42.229Z,7.77
2018-10-09T03:05:10.770Z,11.43
2018-10-09T03:07:39.304Z,8.23
2018-10-09T03:10:08.196Z,13.57
2018-10-09T03:12:36.748Z,8.60
2018-10-09T03:15:06.023Z,13.77
2018-10-09T03:17:34.525Z,9.83
2018-10-09T03:20:03.066Z,9.20
2018-10-09T03:22:31.574Z,8.40
2018-10-09T03:25:00.115Z,12.23
2018-10-09T03:27:28.625Z,12.60
2018-10-09T03:29:57.148Z,8.17
2018-10-09T03:32:25.658Z,7.53
2018-10-09T03:34:54.225Z,9.77
2018-10-09T03:37:22.729Z,8.63
2018-10-09T03:39:51.246Z,10.23
2018-10-09T03:42:19.748Z,10.77
2018-10-09T03:44:48.286Z,7.30
2018-10-09T03:47:16.854Z,15.53
2018-10-09T03:49:45.398Z,10.10
2018-10-09T03:52:13.914Z,7.70
2018-10-09T03:54:42.404Z,7.73
2018-10-09T03:57:10.931Z,5.87
2018-10-09T03:59:39.429Z,7.93
2018-10-09T04:02:07.984Z,7.67
2018-10-09T04:04:36.498Z,9.00
2018-10-09T04:07:05.043Z,9.50
2018-10-09T04:09:33.552Z,6.30
2018-10-09T04:12:02.092Z,7.07
2018-10-09T04:14:30.616Z,6.50
2018-10-09T04:16:59.144Z,10.80
2018-10-09T04:19:27.658Z,10.13
2018-10-09T04:21:56.196Z,8.20
2018-10-09T04:24:24.685Z,11.33
2018-10-09T04:26:53.214Z,9.43
2018-10-09T04:29:21.749Z,14.53
2018-10-09T04:31:50.289Z,9.10
2018-10-09T04:34:18.831Z,9.60
2018-10-09T04:36:47.373Z,8.87
2018-10-09T04:39:15.871Z,8.20
2018-10-09T04:41:44.370Z,7.83
2018-10-09T04:44:12.891Z,9.97
2018-10-09T04:46:41.400Z,13.23
2018-10-09T04:49:09.939Z,7.20
2018-10-09T04:51:38.440Z,7.33
2018-10-09T04:54:06.986Z,6.20
2018-10-09T04:56:35.473Z,6.83
2018-10-09T04:59:04.065Z,9.30
2018-10-09T05:01:32.599Z,13.80
2018-10-09T05:04:01.128Z,8.40
2018-10-09T05:06:29.612Z,9.50
2018-10-09T05:08:58.148Z,12.33
2018-10-09T05:11:26.668Z,10.27
2018-10-09T05:13:55.196Z,8.00
2018-10-09T05:16:23.797Z,8.63
2018-10-09T05:18:52.325Z,12.50
2018-10-09T05:21:20.818Z,8.67
2018-10-09T05:23:49.355Z,13.93
2018-10-09T05:26:17.922Z,10.40
2018-10-09T05:28:46.457Z,10.67
2018-10-09T05:31:15.025Z,12.47
2018-10-09T05:33:43.539Z,7.07
2018-10-09T05:36:12.029Z,9.07
2018-10-09T05:38:40.544Z,9.53
2018-10-09T05:41:09.062Z,9.70
2018-10-09T05:43:37.564Z,12.03
2018-10-09T05:46:06.433Z,9.67
2018-10-09T05:48:34.948Z,10.33
2018-10-09T05:51:03.506Z,9.27
2018-10-09T05:53:32.053Z,11.30
2018-10-09T05:56:00.578Z,9.90
2018-10-09T05:58:29.069Z,10.00
2018-10-09T06:00:57.627Z,9.90
2018-10-09T06:03:26.137Z,14.83
2018-10-09T06:05:54.744Z,10.20
2018-10-09T06:08:23.213Z,9.00
2018-10-09T06:10:51.737Z,11.03
2018-10-09T06:13:20.272Z,13.37
2018-10-09T06:15:48.841Z,14.10
2018-10-09T06:18:17.356Z,13.70
2018-10-09T06:20:45.899Z,12.60
2018-10-09T06:23:14.408Z,12.23
2018-10-09T06:25:42.924Z,13.73
2018-10-09T06:28:11.567Z,18.30
2018-10-09T06:30:40.004Z,13.33
2018-10-09T06:33:08.545Z,10.90
2018-10-09T06:35:37.073Z,12.97
2018-10-09T06:38:05.603Z,10.60
2018-10-09T06:40:34.162Z,13.17
2018-10-09T06:43:02.673Z,10.57
2018-10-09T06:45:31.199Z,8.80
2018-10-09T06:47:59.750Z,13.43
2018-10-09T06:50:28.293Z,9.80
2018-10-09T06:52:56.823Z,13.50
2018-10-09T06:55:25.335Z,13.27
2018-10-09T06:57:53.866Z,11.83
2018-10-09T07:00:22.430Z,14.87
2018-10-09T07:02:50.974Z,14.03
2018-10-09T07:05:19.506Z,13.60
2018-10-09T07:07:48.047Z,18.10
2018-10-09T07:10:16.576Z,18.40
2018-10-09T07:12:45.102Z,15.80
2018-10-09T07:15:13.652Z,16.97
2018-10-09T07:17:42.177Z,14.33
2018-10-09T07:20:10.762Z,15.00
2018-10-09T07:22:39.346Z,15.60
2018-10-09T07:25:07.902Z,15.30
2018-10-09T07:27:36.478Z,17.50
2018-10-09T07:30:06.017Z,22.83
2018-10-09T07:32:34.538Z,19.57
2018-10-09T07:35:03.112Z,22.90
2018-10-09T07:37:31.658Z,22.97
2018-10-09T07:40:00.255Z,22.33
2018-10-09T07:42:28.757Z,21.33
2018-10-09T07:44:57.287Z,20.37
2018-10-09T07:47:25.821Z,21.87
2018-10-09T07:49:54.375Z,22.50
2018-10-09T07:52:22.906Z,20.63
2018-10-09T07:54:51.449Z,25.10
2018-10-09T07:57:19.950Z,21.43
2018-10-09T07:59:48.487Z,23.13
2018-10-09T08:02:16.994Z,19.33
2018-10-09T08:04:45.588Z,20.37
2018-10-09T08:07:14.090Z,17.83
2018-10-09T08:09:42.618Z,18.70
2018-10-09T08:12:11.125Z,20.20
2018-10-09T08:14:39.681Z,17.20
2018-10-09T08:17:08.197Z,21.63
2018-10-09T08:19:36.745Z,21.90
2018-10-09T08:22:05.284Z,23.17
2018-10-09T08:24:33.836Z,21.90
2018-10-09T08:27:02.368Z,18.77
2018-10-09T08:29:30.922Z,19.90
2018-10-09T08:31:59.437Z,20.87
2018-10-09T08:34:28.061Z,26.30
2018-10-09T08:36:56.579Z,28.73
2018-10-09T08:39:25.119Z,24.40
2018-10-09T08:41:53.628Z,31.07
2018-10-09T08:44:22.148Z,21.87
2018-10-09T08:46:50.683Z,21.07
2018-10-09T08:49:19.203Z,24.03
2018-10-09T08:51:48.334Z,25.70
2018-10-09T08:54:16.898Z,22.17
2018-10-09T08:56:45.444Z,24.33
2018-10-09T08:59:13.959Z,20.27
2018-10-09T09:01:42.523Z,22.67
2018-10-09T09:04:11.034Z,20.27
2018-10-09T09:06:39.566Z,19.50
2018-10-09T09:09:09.699Z,22.63
2018-10-09T09:11:38.522Z,25.20
2018-10-09T09:14:07.134Z,23.47
2018-10-09T09:16:35.933Z,25.53
2018-10-09T09:19:04.460Z,28.73
2018-10-09T09:21:33.078Z,22.07
2018-10-09T09:24:02.114Z,26.13
2018-10-09T09:26:30.719Z,22.13
2018-10-09T09:28:59.421Z,23.63
2018-10-09T09:31:28.472Z,22.13
2018-10-09T09:33:57.016Z,22.60
2018-10-09T09:36:25.573Z,22.10
2018-10-09T09:38:54.171Z,25.27
2018-10-09T09:41:22.721Z,20.27
2018-10-09T09:43:51.232Z,26.97
2018-10-09T09:46:19.877Z,25.30
2018-10-09T09:48:48.370Z,28.63
2018-10-09T09:51:16.886Z,24.47
2018-10-09T09:53:45.452Z,21.00
2018-10-09T09:56:14.068Z,22.83
2018-10-09T09:58:42.721Z,22.40
2018-10-09T10:01:12.094Z,23.13
2018-10-09T10:03:41.805Z,28.10
2018-10-09T10:06:10.405Z,18.27
2018-10-09T10:08:39.363Z,23.57
2018-10-09T10:11:07.923Z,23.20
2018-10-09T10:13:36.499Z,21.90
2018-10-09T10:16:05.013Z,21.03
2018-10-09T10:18:33.550Z,18.57
2018-10-09T10:21:02.066Z,19.03
2018-10-09T10:23:30.598Z,20.30
2018-10-09T10:25:59.144Z,21.53
2018-10-09T10:28:27.687Z,21.90
2018-10-09T10:30:56.181Z,21.00
2018-10-09T10:33:24.733Z,21.80
2018-10-09T10:35:53.233Z,22.47
2018-10-09T10:38:21.761Z,25.97
2018-10-09T10:40:50.277Z,23.80
2018-10-09T10:43:18.812Z,17.50
2018-10-09T10:45:47.333Z,21.53
2018-10-09T10:48:15.893Z,20.10
2018-10-09T10:50:44.435Z,19.60
2018-10-09T10:53:12.961Z,22.33
2018-10-09T10:55:41.510Z,20.17
2018-10-09T10:58:10.016Z,22.00
2018-10-09T11:00:38.552Z,18.83
2018-10-09T11:03:07.470Z,23.00
2018-10-09T11:05:36.132Z,22.20
2018-10-09T11:08:04.705Z,23.97
2018-10-09T11:10:33.227Z,25.03
2018-10-09T11:13:01.757Z,23.80
2018-10-09T11:15:30.301Z,25.57
2018-10-09T11:17:58.802Z,25.97
2018-10-09T11:20:27.345Z,26.33
2018-10-09T11:22:55.860Z,26.20
2018-10-09T11:25:24.400Z,26.70
2018-10-09T11:27:52.907Z,23.70
2018-10-09T11:30:21.440Z,21.80
2018-10-09T11:32:49.952Z,22.27
2018-10-09T11:35:18.524Z,30.10
2018-10-09T11:37:47.042Z,24.93
2018-10-09T11:40:15.590Z,20.43
2018-10-09T11:42:44.167Z,24.17
2018-10-09T11:45:12.707Z,21.93
2018-10-09T11:47:41.225Z,27.50
2018-10-09T11:50:09.823Z,22.87
2018-10-09T11:52:38.398Z,20.40
2018-10-09T11:55:06.924Z,21.77
2018-10-09T11:57:35.469Z,21.53
2018-10-09T12:00:04.426Z,18.60
2018-10-09T12:02:32.963Z,19.40
2018-10-09T12:05:01.481Z,19.10
2018-10-09T12:07:30.085Z,22.53
2018-10-09T12:09:58.595Z,20.10
2018-10-09T12:12:27.183Z,22.70
2018-10-09T12:14:55.705Z,20.93
2018-10-09T12:17:24.800Z,22.00
2018-10-09T12:19:53.353Z,20.50
2018-10-09T12:22:21.895Z,24.27
2018-10-09T12:24:50.418Z,21.67
2018-10-09T12:27:19.299Z,21.70
2018-10-09T12:29:47.825Z,25.13
2018-10-09T12:32:16.366Z,16.53
2018-10-09T12:34:44.886Z,16.97
2018-10-09T12:37:13.421Z,18.40
2018-10-09T12:39:41.916Z,19.13
2018-10-09T12:42:10.445Z,16.53
2018-10-09T12:44:38.938Z,16.63
2018-10-09T12:47:07.850Z,17.63
2018-10-09T12:49:36.366Z,19.87
2018-10-09T12:52:04.944Z,16.60
2018-10-09T12:54:33.491Z,18.10
2018-10-09T12:57:02.069Z,17.07
2018-10-09T12:59:30.594Z,15.53
2018-10-09T13:01:59.091Z,17.90
2018-10-09T13:04:27.634Z,18.93
2018-10-09T13:06:56.151Z,15.00
2018-10-09T13:09:24.695Z,16.30
2018-10-09T13:11:53.243Z,18.47
2018-10-09T13:14:21.764Z,17.20
2018-10-09T13:16:50.371Z,15.77
2018-10-09T13:19:18.845Z,14.53
2018-10-09T13:21:47.586Z,17.00
2018-10-09T13:24:15.926Z,15.60
2018-10-09T13:26:44.472Z,20.13
2018-10-09T13:29:13.021Z,17.47
2018-10-09T13:31:41.562Z,16.57
2018-10-09T13:34:10.215Z,14.83
2018-10-09T13:36:38.678Z,16.33
2018-10-09T13:39:08.138Z,14.27
2018-10-09T13:41:36.647Z,12.87
2018-10-09T13:44:05.197Z,15.70
2018-10-09T13:46:33.722Z,13.67
2018-10-09T13:49:02.259Z,15.73
2018-10-09T13:51:30.769Z,14.70
2018-10-09T13:53:59.301Z,16.27
2018-10-09T13:56:27.808Z,15.83
2018-10-09T13:58:56.341Z,15.87
2018-10-09T14:01:24.829Z,15.07
2018-10-09T14:03:53.374Z,13.87
2018-10-09T14:06:21.919Z,17.63
2018-10-09T14:08:50.973Z,15.37
2018-10-09T14:11:19.487Z,13.90
2018-10-09T14:13:48.020Z,16.07
2018-10-09T14:16:16.555Z,15.50
2018-10-09T14:18:45.146Z,14.50
2018-10-09T14:21:13.669Z,15.37
2018-10-09T14:23:42.174Z,21.37
2018-10-09T14:26:10.741Z,21.73
2018-10-09T14:28:39.250Z,21.77
2018-10-09T14:31:07.886Z,15.30
2018-10-09T14:33:36.426Z,18.33
2018-10-09T14:36:04.968Z,17.20
2018-10-09T14:38:33.479Z,41.40
2018-10-09T14:41:02.042Z,18.20
2018-10-09T14:43:30.549Z,17.30
2018-10-09T14:45:59.119Z,23.73
2018-10-09T14:48:27.646Z,19.10
2018-10-09T14:50:56.201Z,17.57
2018-10-09T14:53:24.731Z,14.73
2018-10-09T14:55:53.270Z,18.60
2018-10-09T14:58:21.766Z,19.03
2018-10-09T15:00:50.345Z,17.30
2018-10-09T15:03:18.906Z,19.70
2018-10-09T15:05:47.429Z,16.93
2018-10-09T15:08:15.938Z,20.73
2018-10-09T15:10:44.500Z,17.30
2018-10-09T15:13:13.002Z,15.83
2018-10-09T15:15:41.526Z,20.20
2018-10-09T15:18:10.091Z,16.57
2018-10-09T15:20:38.605Z,18.20
2018-10-09T15:23:07.735Z,19.63
2018-10-09T15:25:36.262Z,19.07
2018-10-09T15:28:05.062Z,14.40
2018-10-09T15:30:33.601Z,20.30
2018-10-09T15:33:02.581Z,18.50
2018-10-09T15:35:31.192Z,16.20
2018-10-09T15:37:59.678Z,17.30
2018-10-09T15:40:28.190Z,17.03
2018-10-09T15:42:56.757Z,19.27
2018-10-09T15:45:25.270Z,18.70
2018-10-09T15:47:53.793Z,14.90
2018-10-09T15:50:22.313Z,17.73
2018-10-09T15:52:51.019Z,15.40
2018-10-09T15:55:19.384Z,23.30
2018-10-09T15:57:47.919Z,15.80
2018-10-09T16:00:16.426Z,14.17
2018-10-09T16:02:44.986Z,21.00
2018-10-09T16:05:13.479Z,13.80
2018-10-09T16:07:41.998Z,20.17
2018-10-09T16:10:10.497Z,15.70
2018-10-09T16:12:39.019Z,15.93
2018-10-09T16:15:07.535Z,16.10
2018-10-09T16:17:36.073Z,16.30
2018-10-09T16:20:05.178Z,18.73
2018-10-09T16:22:33.693Z,18.43
2018-10-09T16:25:02.213Z,19.20
2018-10-09T16:27:30.734Z,14.97
2018-10-09T16:29:59.231Z,17.17
2018-10-09T16:32:27.864Z,16.83
2018-10-09T16:34:56.318Z,12.97
2018-10-09T16:37:24.937Z,15.43
2018-10-09T16:39:53.442Z,16.13
2018-10-09T16:42:21.951Z,14.53
2018-10-09T16:44:50.456Z,16.27
2018-10-09T16:47:19.035Z,14.50
2018-10-09T16:49:47.555Z,14.20
2018-10-09T16:52:16.146Z,15.17
2018-10-09T16:54:44.649Z,16.37
2018-10-09T16:57:13.178Z,13.23
2018-10-09T16:59:41.673Z,16.70
2018-10-09T17:02:10.190Z,20.63
2018-10-09T17:04:38.690Z,15.00
2018-10-09T17:07:07.273Z,14.20
2018-10-09T17:09:35.770Z,15.47
2018-10-09T17:12:04.269Z,13.73
2018-10-09T17:14:32.791Z,15.80
2018-10-09T17:17:01.286Z,15.57
2018-10-09T17:19:29.802Z,16.90
2018-10-09T17:21:58.298Z,13.17
2018-10-09T17:24:26.809Z,11.60
2018-10-09T17:26:55.424Z,11.73
2018-10-09T17:29:23.898Z,11.13
2018-10-09T17:31:52.389Z,16.23
2018-10-09T17:34:20.918Z,14.33
2018-10-09T17:36:49.531Z,13.60
2018-10-09T17:39:18.138Z,14.73
2018-10-09T17:41:46.585Z,11.83
2018-10-09T17:44:15.103Z,10.60
2018-10-09T17:46:43.629Z,15.80
2018-10-09T17:49:12.146Z,19.77
2018-10-09T17:51:40.645Z,19.10
2018-10-09T17:54:09.172Z,14.77
2018-10-09T17:56:37.661Z,13.77
2018-10-09T17:59:06.337Z,11.50
2018-10-09T18:01:34.836Z,11.30
2018-10-09T18:04:03.362Z,15.10
2018-10-09T18:06:31.877Z,10.27
2018-10-09T18:09:00.398Z,12.00
2018-10-09T18:11:28.905Z,12.43
2018-10-09T18:13:57.434Z,18.63
2018-10-09T18:16:25.946Z,11.20
2018-10-09T18:18:54.475Z,8.90
2018-10-09T18:21:22.978Z,7.80
2018-10-09T18:23:51.490Z,16.50
2018-10-09T18:26:20.010Z,10.67
2018-10-09T18:28:48.522Z,13.77
2018-10-09T18:31:17.036Z,13.73
2018-10-09T18:33:45.578Z,12.20
2018-10-09T18:36:14.121Z,10.53
2018-10-09T18:38:42.641Z,11.97
2018-10-09T18:41:11.248Z,14.57
2018-10-09T18:43:39.697Z,11.93
2018-10-09T18:46:08.249Z,10.40
2018-10-09T18:48:36.755Z,9.20
2018-10-09T18:51:05.296Z,10.63
2018-10-09T18:53:33.809Z,11.23
2018-10-09T18:56:02.332Z,13.20
2018-10-09T18:58:30.841Z,11.63
2018-10-09T19:00:59.425Z,14.50
2018-10-09T19:03:27.987Z,13.13
2018-10-09T19:05:56.517Z,13.13
2018-10-09T19:08:25.097Z,10.37
2018-10-09T19:10:53.733Z,10.17
2018-10-09T19:13:22.189Z,16.30
2018-10-09T19:15:50.803Z,9.83
2018-10-09T19:18:19.327Z,11.50
2018-10-09T19:20:47.826Z,10.40
2018-10-09T19:23:16.351Z,13.70
2018-10-09T19:25:44.845Z,11.03
2018-10-09T19:28:13.364Z,12.03
2018-10-09T19:30:41.873Z,28.97
2018-10-09T19:33:10.446Z,7.60
2018-10-09T19:35:38.945Z,11.47
2018-10-09T19:38:07.461Z,9.90
2018-10-09T19:40:35.962Z,14.37
2018-10-09T19:43:04.494Z,8.23
2018-10-09T19:45:33.006Z,16.63
2018-10-09T19:48:01.531Z,10.43
2018-10-09T19:50:30.035Z,7.70
2018-10-09T19:52:58.553Z,16.83
2018-10-09T19:55:27.067Z,10.00
2018-10-09T19:57:55.591Z,10.90
2018-10-09T20:00:24.120Z,11.50
2018-10-09T20:02:52.640Z,14.40
2018-10-09T20:05:21.143Z,16.83
2018-10-09T20:07:49.757Z,13.87
2018-10-09T20:10:18.299Z,11.60
2018-10-09T20:12:47.176Z,8.00
2018-10-09T20:15:15.676Z,14.30
2018-10-09T20:17:44.206Z,10.30
2018-10-09T20:20:12.728Z,12.27
2018-10-09T20:22:41.257Z,10.73
2018-10-09T20:25:09.761Z,8.27
2018-10-09T20:27:38.286Z,12.20
2018-10-09T20:30:06.836Z,9.07
2018-10-09T20:32:35.349Z,11.63
2018-10-09T20:35:03.910Z,21.23
2018-10-09T20:37:32.450Z,11.30
2018-10-09T20:40:00.948Z,10.67
2018-10-09T20:42:29.444Z,9.00
2018-10-09T20:44:57.956Z,9.93
2018-10-09T20:47:31.737Z,12.90
2018-10-09T20:50:00.264Z,12.90
2018-10-09T20:52:28.766Z,13.90
2018-10-09T20:54:57.298Z,13.90
2018-10-09T20:57:25.802Z,14.13
2018-10-09T20:59:54.316Z,9.40
2018-10-09T21:02:22.797Z,15.37
2018-10-09T21:04:51.332Z,15.33
2018-10-09T21:07:19.829Z,10.70
2018-10-09T21:09:48.346Z,10.60
2018-10-09T21:12:16.877Z,8.80
2018-10-09T21:14:45.380Z,9.20
2018-10-09T21:17:13.879Z,10.50
2018-10-09T21:19:42.389Z,9.50
2018-10-09T21:22:10.888Z,9.97
2018-10-09T21:24:39.446Z,9.50
2018-10-09T21:27:08.146Z,13.90
2018-10-09T21:29:36.670Z,10.73
2018-10-09T21:32:05.187Z,9.60
2018-10-09T21:34:33.697Z,9.40
2018-10-09T21:37:02.223Z,16.23
2018-10-09T21:39:30.720Z,13.93
2018-10-09T21:41:59.327Z,11.67
2018-10-09T21:44:27.821Z,11.80
2018-10-09T21:46:56.342Z,10.90
2018-10-09T21:49:24.837Z,12.90
2018-10-09T21:51:53.363Z,11.07
2018-10-09T21:54:21.876Z,11.67
2018-10-09T21:56:50.420Z,12.13
2018-10-09T21:59:18.932Z,9.80
2018-10-09T22:01:47.457Z,11.37
2018-10-09T22:04:15.960Z,13.10
2018-10-09T22:06:44.453Z,15.60
2018-10-09T22:09:12.977Z,14.13
2018-10-09T22:11:41.491Z,15.67
2018-10-09T22:14:10.010Z,13.60
2018-10-09T22:16:38.508Z,12.43
2018-10-09T22:19:07.075Z,15.13
2018-10-09T22:21:35.630Z,14.43
2018-10-09T22:24:04.166Z,14.60
2018-10-09T22:26:32.678Z,18.27
2018-10-09T22:29:01.213Z,17.40
2018-10-09T22:31:29.722Z,14.33
2018-10-09T22:33:58.264Z,18.40
2018-10-09T22:36:26.797Z,16.90
2018-10-09T22:38:55.317Z,14.43
2018-10-09T22:41:23.829Z,18.90
2018-10-09T22:43:52.381Z,14.17
2018-10-09T22:46:20.885Z,17.13
2018-10-09T22:48:49.410Z,16.07
2018-10-09T22:51:17.919Z,13.47
2018-10-09T22:53:46.439Z,13.03
2018-10-09T22:56:14.929Z,12.00
2018-10-09T22:58:43.413Z,16.70
2018-10-09T23:01:11.943Z,15.10
2018-10-09T23:03:40.450Z,14.60
2018-10-09T23:06:08.992Z,18.77
2018-10-09T23:08:37.541Z,13.13
2018-10-09T23:11:06.550Z,13.30
2018-10-09T23:13:35.057Z,15.20
2018-10-09T23:16:03.586Z,16.90
2018-10-09T23:18:32.088Z,17.10
2018-10-09T23:21:00.613Z,16.83
2018-10-09T23:23:29.106Z,11.13
2018-10-09T23:25:57.632Z,15.57
2018-10-09T23:28:26.127Z,14.73
2018-10-09T23:30:54.651Z,15.77
2018-10-09T23:33:23.184Z,15.07
2018-10-09T23:35:51.704Z,14.60
2018-10-09T23:38:20.458Z,11.73
2018-10-09T23:40:48.983Z,15.60
2018-10-09T23:43:17.555Z,15.40
2018-10-09T23:45:46.079Z,12.77
2018-10-09T23:48:14.571Z,16.80
2018-10-09T23:50:43.157Z,15.50
2018-10-09T23:53:11.653Z,11.77
2018-10-09T23:55:40.163Z,14.50
2018-10-09T23:58:08.697Z,16.53
